Terminal Aerodrome Forecast
Issued by NWS

Home | Current Version | Previous Version | Text Only | Print | Product List | Glossary Off
Versions: 1 2 3 4 5 6 7 8 9 10 11 12 13 14 15 16 17

000
FTUS43 KBIS 282329 AAB
TAFDIK
TAF AMD
KDIK 282329Z 2823/2924 08010KT P6SM BKN070
     FM291700 11009KT P6SM SCT150
     FM292100 11012KT P6SM BKN090=

USA.gov is the U.S. government's official web portal to all federal, state and local government web resources and services.